Time;durP1;ratioP1;P1;durP2;ratioP2;P2;SDS_P1;SDS_P2;PMS_P1;PMS_P2;Temp;Humidity;BMP_temperature;BMP_pressure;BME280_temperature;BME280_humidity;BME280_pressure;Samples;Min_cycle;Max_cycle;Signal;HPM_P1;HPM_P2
2023/12/22 00:00:52;;;;;;;2.53;1.67;;;9.80;99.90;;;;;;5013042;28;20482;-37
2023/12/22 00:03:18;;;;;;;3.90;1.87;;;9.80;99.90;;;;;;4993759;28;21164;-32
2023/12/22 00:05:44;;;;;;;3.80;1.70;;;9.80;99.90;;;;;;4990483;28;20443;-38
2023/12/22 00:08:10;;;;;;;2.97;1.80;;;9.80;99.90;;;;;;5012342;28;20551;-36
2023/12/22 00:10:39;;;;;;;4.27;1.53;;;9.80;99.90;;;;;;4999131;28;20523;-35
2023/12/22 00:13:05;;;;;;;4.40;1.67;;;9.80;99.90;;;;;;4991265;28;20961;-39
2023/12/22 00:15:30;;;;;;;3.27;1.70;;;9.80;99.90;;;;;;5011542;28;20819;-37
2023/12/22 00:17:59;;;;;;;5.23;1.80;;;9.70;99.90;;;;;;5007303;28;21114;-37
2023/12/22 00:20:28;;;;;;;3.60;1.80;;;9.80;99.90;;;;;;4982256;28;20954;-36
2023/12/22 00:22:53;;;;;;;8.93;1.83;;;9.70;99.90;;;;;;5015118;28;20481;-33
2023/12/22 00:25:19;;;;;;;5.23;2.03;;;9.80;99.90;;;;;;5018976;28;20428;-38
2023/12/22 00:27:45;;;;;;;5.27;2.10;;;9.70;99.90;;;;;;5015707;28;20452;-38
2023/12/22 00:30:18;;;;;;;2.63;1.30;;;9.70;99.90;;;;;;4998089;28;20449;-36
2023/12/22 00:32:44;;;;;;;4.23;1.73;;;9.70;99.90;;;;;;4998987;28;20463;-38
2023/12/22 00:35:13;;;;;;;3.80;2.20;;;9.70;99.90;;;;;;5015507;28;20427;-38
2023/12/22 00:37:39;;;;;;;6.73;2.00;;;9.70;99.90;;;;;;5015063;28;20451;-36
2023/12/22 00:40:07;;;;;;;4.73;1.70;;;9.70;99.90;;;;;;4991865;28;20555;-38
2023/12/22 00:42:33;;;;;;;5.53;1.90;;;9.70;99.90;;;;;;5001243;28;20467;-34
2023/12/22 00:45:03;;;;;;;3.63;2.13;;;9.70;99.90;;;;;;5015914;28;20430;-38
2023/12/22 00:47:29;;;;;;;2.73;1.53;;;9.70;99.90;;;;;;5000092;28;20474;-37
2023/12/22 00:49:57;;;;;;;7.00;1.57;;;9.70;99.90;;;;;;5014094;28;20574;-34
2023/12/22 00:52:23;;;;;;;4.67;1.93;;;9.70;99.90;;;;;;5013736;28;20511;-34
2023/12/22 00:54:49;;;;;;;4.40;1.90;;;9.70;99.90;;;;;;4998427;28;20467;-32
2023/12/22 00:57:18;;;;;;;7.37;1.77;;;9.70;99.90;;;;;;4997389;28;20455;-35
2023/12/22 00:59:47;;;;;;;10.87;2.33;;;9.70;99.90;;;;;;4993210;28;20432;-37
2023/12/22 01:02:20;;;;;;;3.63;1.60;;;9.70;99.90;;;;;;5018163;28;20882;-36
2023/12/22 01:04:46;;;;;;;6.23;1.90;;;9.70;99.90;;;;;;5009608;28;20434;-33
2023/12/22 01:07:15;;;;;;;3.43;1.50;;;9.70;99.90;;;;;;5016960;28;20461;-38
2023/12/22 01:09:43;;;;;;;5.27;1.70;;;9.60;99.90;;;;;;5009104;28;20445;-35
2023/12/22 01:12:12;;;;;;;4.83;1.90;;;9.70;99.90;;;;;;4990686;28;20436;-33
2023/12/22 01:14:39;;;;;;;4.80;1.80;;;9.60;99.90;;;;;;5014999;28;21489;-33
2023/12/22 01:17:05;;;;;;;3.47;1.80;;;9.60;99.90;;;;;;4994936;28;21369;-36
2023/12/22 01:19:31;;;;;;;5.67;1.87;;;9.60;99.90;;;;;;4982666;28;20518;-33
2023/12/22 01:21:57;;;;;;;4.90;2.57;;;9.60;99.90;;;;;;5012580;28;20424;-31
2023/12/22 01:24:32;;;;;;;5.10;2.03;;;9.60;99.90;;;;;;5006646;28;20504;-34
2023/12/22 01:27:00;;;;;;;4.77;1.80;;;9.60;99.90;;;;;;4990495;28;20499;-33
2023/12/22 01:29:30;;;;;;;5.17;2.40;;;9.60;99.90;;;;;;4992698;28;20463;-34
2023/12/22 01:31:59;;;;;;;3.40;1.60;;;9.60;99.90;;;;;;4994771;28;20424;-34
2023/12/22 01:34:27;;;;;;;4.87;2.00;;;9.60;99.90;;;;;;5010680;28;20455;-35
2023/12/22 01:36:53;;;;;;;3.80;1.80;;;9.60;99.90;;;;;;4978787;28;20457;-36
2023/12/22 01:39:19;;;;;;;7.67;2.40;;;9.60;99.90;;;;;;4988250;28;20429;-36
2023/12/22 01:41:48;;;;;;;5.93;2.10;;;9.60;99.90;;;;;;5012663;28;20423;-33
2023/12/22 01:44:14;;;;;;;4.17;1.80;;;9.60;99.90;;;;;;5011695;28;21136;-35
2023/12/22 01:46:40;;;;;;;12.50;3.60;;;9.60;99.90;;;;;;4974690;28;20448;-33
2023/12/22 01:49:08;;;;;;;5.50;1.80;;;9.60;99.90;;;;;;5013212;28;20440;-35
2023/12/22 01:51:37;;;;;;;8.30;2.17;;;9.60;99.90;;;;;;4994686;28;20429;-35
2023/12/22 01:54:07;;;;;;;5.20;2.10;;;9.60;99.90;;;;;;4999397;28;20467;-35
2023/12/22 01:56:35;;;;;;;8.33;2.10;;;9.60;99.90;;;;;;5015054;28;21008;-37
2023/12/22 01:59:02;;;;;;;3.70;1.70;;;9.60;99.90;;;;;;4997072;28;20453;-33
2023/12/22 02:01:28;;;;;;;6.57;1.80;;;9.60;99.90;;;;;;5014689;28;21225;-36
2023/12/22 02:03:56;;;;;;;4.60;1.80;;;9.60;99.90;;;;;;5015634;28;20641;-34
2023/12/22 02:06:25;;;;;;;4.40;1.70;;;9.60;99.90;;;;;;4996438;28;20961;-36
2023/12/22 02:08:54;;;;;;;4.33;2.00;;;9.60;99.90;;;;;;4983470;28;20423;-35
2023/12/22 02:11:20;;;;;;;4.33;2.07;;;9.60;99.90;;;;;;4981016;28;20439;-34
2023/12/22 02:13:48;;;;;;;7.37;1.80;;;9.60;99.90;;;;;;4986255;28;20440;-37
2023/12/22 02:16:57;;;;;;;4.93;1.97;;;9.60;99.90;;;;;;4999470;28;20599;-39
2023/12/22 02:19:38;;;;;;;4.33;1.30;;;9.60;99.90;;;;;;4998488;28;20440;-39
2023/12/22 02:22:07;;;;;;;4.17;2.47;;;9.50;99.90;;;;;;5000960;28;20461;-37
2023/12/22 02:24:41;;;;;;;3.40;1.37;;;9.50;99.90;;;;;;4968263;28;20523;-37
2023/12/22 02:27:17;;;;;;;2.40;1.47;;;9.50;99.90;;;;;;4999841;28;20443;-40
2023/12/22 02:30:02;;;;;;;2.30;1.40;;;9.50;99.90;;;;;;4982013;28;20578;-36
2023/12/22 02:32:34;;;;;;;3.40;1.70;;;9.50;99.90;;;;;;4998938;28;20626;-37
2023/12/22 02:35:02;;;;;;;3.10;1.80;;;9.50;99.90;;;;;;4964159;28;20441;-38
2023/12/22 02:37:30;;;;;;;3.37;1.50;;;9.50;99.90;;;;;;5004557;28;20455;-39
2023/12/22 02:39:56;;;;;;;3.50;1.70;;;9.50;99.90;;;;;;4997351;28;20478;-39
2023/12/22 02:42:29;;;;;;;2.70;1.50;;;9.50;99.90;;;;;;4988823;28;20519;-38
2023/12/22 02:44:59;;;;;;;4.43;1.93;;;9.50;99.90;;;;;;4998218;28;20424;-37
2023/12/22 02:47:29;;;;;;;6.27;2.07;;;9.50;99.90;;;;;;4998561;28;20445;-37
2023/12/22 02:49:55;;;;;;;2.33;1.47;;;9.40;99.90;;;;;;4979949;28;20511;-38
2023/12/22 02:52:23;;;;;;;2.90;1.67;;;9.40;99.90;;;;;;5002331;28;20454;-38
2023/12/22 02:54:49;;;;;;;3.60;1.37;;;9.50;99.90;;;;;;4985878;28;20435;-35
2023/12/22 02:57:16;;;;;;;3.03;1.70;;;9.50;99.90;;;;;;5010845;28;20453;-36
2023/12/22 02:59:42;;;;;;;4.40;2.20;;;9.40;99.90;;;;;;5010231;28;20460;-37
2023/12/22 03:02:09;;;;;;;3.37;1.50;;;9.40;99.90;;;;;;5010875;28;20881;-37
2023/12/22 03:04:36;;;;;;;6.33;2.10;;;9.40;99.90;;;;;;5018239;28;20477;-37
2023/12/22 03:07:03;;;;;;;4.43;1.80;;;9.50;99.90;;;;;;4997600;28;20444;-32
2023/12/22 03:09:29;;;;;;;2.93;1.47;;;9.40;99.90;;;;;;4999782;28;20510;-36
2023/12/22 03:12:01;;;;;;;3.30;1.50;;;9.40;99.90;;;;;;5014357;28;20458;-34
2023/12/22 03:14:33;;;;;;;4.00;1.90;;;9.40;99.90;;;;;;4993202;28;20444;-35
2023/12/22 03:17:04;;;;;;;3.47;1.70;;;9.40;99.90;;;;;;4989593;28;20507;-32
2023/12/22 03:19:32;;;;;;;6.00;2.27;;;9.40;99.90;;;;;;4999520;28;20479;-31
2023/12/22 03:22:02;;;;;;;3.47;1.80;;;9.40;99.90;;;;;;4999842;28;20940;-34
2023/12/22 03:24:30;;;;;;;5.10;2.10;;;9.40;99.90;;;;;;4985467;28;20482;-34
2023/12/22 03:26:56;;;;;;;5.50;1.80;;;9.40;99.90;;;;;;5018374;28;20444;-35
2023/12/22 03:29:26;;;;;;;3.43;1.87;;;9.40;99.90;;;;;;4985146;28;20457;-34
2023/12/22 03:31:56;;;;;;;4.20;1.93;;;9.40;99.90;;;;;;5000957;23;20505;-39
2023/12/22 03:34:24;;;;;;;5.30;1.90;;;9.40;99.90;;;;;;5011669;28;20433;-36
2023/12/22 03:36:56;;;;;;;5.43;2.00;;;9.40;99.90;;;;;;4981312;28;20436;-37
2023/12/22 03:39:22;;;;;;;6.87;2.10;;;9.40;99.90;;;;;;5015901;28;20509;-35
2023/12/22 03:41:50;;;;;;;9.33;1.97;;;9.40;99.90;;;;;;5012079;28;20498;-37
2023/12/22 03:44:21;;;;;;;4.40;2.13;;;9.40;99.90;;;;;;5017308;28;20625;-40
2023/12/22 03:46:47;;;;;;;2.10;1.67;;;9.40;99.90;;;;;;5011377;28;20446;-34
2023/12/22 03:49:17;;;;;;;7.03;2.00;;;9.40;99.90;;;;;;4981218;28;20930;-38
2023/12/22 03:51:43;;;;;;;2.47;1.50;;;9.40;99.90;;;;;;5015377;28;20435;-38
2023/12/22 03:54:11;;;;;;;4.50;1.97;;;9.40;99.90;;;;;;4997360;28;20428;-40
2023/12/22 03:56:39;;;;;;;4.13;1.70;;;9.40;99.90;;;;;;5015461;28;20447;-36
2023/12/22 03:59:06;;;;;;;4.03;1.70;;;9.40;99.90;;;;;;5014709;28;20550;-36
2023/12/22 04:01:31;;;;;;;4.40;2.03;;;9.40;99.90;;;;;;4997462;28;20485;-36
2023/12/22 04:04:02;;;;;;;2.73;1.63;;;9.40;99.90;;;;;;5014930;28;20459;-33
2023/12/22 04:06:29;;;;;;;5.07;1.93;;;9.40;99.90;;;;;;5017117;28;20970;-41
2023/12/22 04:08:55;;;;;;;2.47;1.73;;;9.40;99.90;;;;;;4997161;28;20447;-40
2023/12/22 04:11:21;;;;;;;2.93;1.90;;;9.40;99.90;;;;;;4994065;28;21278;-38
2023/12/22 04:13:47;;;;;;;7.43;2.20;;;9.40;99.90;;;;;;5008327;28;20455;-36
2023/12/22 04:16:13;;;;;;;6.57;2.50;;;9.40;99.90;;;;;;4999902;28;21009;-32
2023/12/22 04:18:39;;;;;;;4.27;1.97;;;9.30;99.90;;;;;;5014407;28;20451;-37
2023/12/22 04:21:07;;;;;;;4.50;1.80;;;9.30;99.90;;;;;;4994509;28;20459;-36
2023/12/22 04:23:33;;;;;;;4.57;2.00;;;9.30;99.90;;;;;;4991960;28;20472;-35
2023/12/22 04:26:02;;;;;;;8.47;2.43;;;9.30;99.90;;;;;;5012324;28;20472;-38
2023/12/22 04:28:28;;;;;;;5.90;2.17;;;9.30;99.90;;;;;;4978771;28;20452;-36
2023/12/22 04:30:54;;;;;;;5.43;2.03;;;9.30;99.90;;;;;;5011300;28;21353;-39
2023/12/22 04:33:22;;;;;;;6.63;2.40;;;9.30;99.90;;;;;;4996239;28;21053;-37
2023/12/22 04:35:48;;;;;;;5.77;2.23;;;9.30;99.90;;;;;;4993070;28;20456;-37
2023/12/22 04:38:14;;;;;;;7.77;2.63;;;9.30;99.90;;;;;;5009221;28;21230;-36
2023/12/22 04:40:40;;;;;;;6.47;2.40;;;9.30;99.90;;;;;;5017892;28;20451;-40
2023/12/22 04:43:06;;;;;;;6.70;2.60;;;9.30;99.90;;;;;;5014519;28;20483;-39
2023/12/22 04:45:36;;;;;;;7.80;2.67;;;9.30;99.90;;;;;;4982102;28;20543;-39
2023/12/22 04:48:03;;;;;;;8.07;2.53;;;9.30;99.90;;;;;;4995519;28;20545;-37
2023/12/22 04:50:29;;;;;;;7.97;2.37;;;9.30;99.90;;;;;;5000146;28;20455;-40
2023/12/22 04:52:55;;;;;;;6.30;2.63;;;9.30;99.90;;;;;;5014246;28;20529;-38
2023/12/22 04:55:23;;;;;;;8.27;2.77;;;9.30;99.90;;;;;;4997270;28;20431;-38
2023/12/22 04:57:49;;;;;;;6.50;2.47;;;9.20;99.90;;;;;;5014975;28;20479;-37
2023/12/22 05:00:18;;;;;;;7.37;2.57;;;9.20;99.90;;;;;;5015227;28;20510;-33
2023/12/22 05:02:44;;;;;;;11.83;3.30;;;9.30;99.90;;;;;;5001113;28;20463;-39
2023/12/22 05:05:15;;;;;;;10.50;2.90;;;9.30;99.90;;;;;;5017252;28;20440;-36
2023/12/22 05:07:41;;;;;;;14.10;4.00;;;9.20;99.90;;;;;;5015919;28;20943;-40
2023/12/22 05:10:08;;;;;;;6.67;2.57;;;9.20;99.90;;;;;;5016743;28;20553;-40
2023/12/22 05:12:34;;;;;;;5.60;2.80;;;9.20;99.90;;;;;;5013137;28;20432;-37
2023/12/22 05:15:00;;;;;;;6.10;2.83;;;9.20;99.90;;;;;;5018482;28;20443;-39
2023/12/22 05:17:26;;;;;;;6.83;2.80;;;9.20;99.90;;;;;;4994501;28;20463;-40
2023/12/22 05:19:52;;;;;;;5.33;2.63;;;9.20;99.90;;;;;;4997906;28;20435;-38
2023/12/22 05:22:18;;;;;;;7.97;3.37;;;9.20;99.90;;;;;;4977947;28;20480;-37
2023/12/22 05:24:44;;;;;;;6.63;2.67;;;9.20;99.90;;;;;;4997207;28;20475;-36
2023/12/22 05:27:12;;;;;;;8.90;2.77;;;9.20;99.90;;;;;;4996613;28;20517;-32
2023/12/22 05:29:41;;;;;;;7.80;2.80;;;9.20;99.90;;;;;;4982545;28;21048;-39
2023/12/22 05:32:07;;;;;;;11.07;3.67;;;9.20;99.90;;;;;;5014866;28;20528;-37
2023/12/22 05:34:33;;;;;;;5.27;2.37;;;9.20;99.90;;;;;;4995321;28;21026;-40
2023/12/22 05:37:01;;;;;;;5.23;2.80;;;9.20;99.90;;;;;;5016363;28;20530;-38
2023/12/22 05:39:32;;;;;;;5.50;2.83;;;9.20;99.90;;;;;;5000400;28;20510;-39
2023/12/22 05:41:58;;;;;;;8.57;3.20;;;9.20;99.90;;;;;;4996541;28;20435;-38
2023/12/22 05:44:24;;;;;;;10.40;3.37;;;9.20;99.90;;;;;;5010681;28;20468;-35
2023/12/22 05:46:50;;;;;;;5.00;2.40;;;9.20;99.90;;;;;;4995841;28;20576;-29
2023/12/22 05:49:16;;;;;;;7.33;3.37;;;9.20;99.90;;;;;;4999190;28;21298;-38
2023/12/22 05:51:42;;;;;;;4.27;2.47;;;9.20;99.90;;;;;;4982007;28;20473;-37
2023/12/22 05:54:11;;;;;;;9.73;3.00;;;9.20;99.90;;;;;;5015308;28;20548;-32
2023/12/22 05:56:42;;;;;;;3.27;2.07;;;9.20;99.90;;;;;;5017132;28;20487;-35
2023/12/22 05:59:08;;;;;;;5.27;2.50;;;9.20;99.90;;;;;;5005870;28;20980;-34
2023/12/22 06:01:36;;;;;;;7.00;2.37;;;9.20;99.90;;;;;;5007355;28;20522;-36
2023/12/22 06:04:03;;;;;;;5.60;2.60;;;9.20;99.90;;;;;;5010665;28;20463;-33
2023/12/22 06:06:31;;;;;;;9.20;2.93;;;9.20;99.90;;;;;;4991394;28;20451;-35
2023/12/22 06:08:57;;;;;;;4.87;2.40;;;9.20;99.90;;;;;;4997790;28;20451;-34
2023/12/22 06:11:23;;;;;;;3.17;2.67;;;9.20;99.90;;;;;;4997289;28;20420;-30
2023/12/22 06:13:51;;;;;;;8.67;2.50;;;9.20;99.90;;;;;;5015820;28;20485;-36
2023/12/22 06:16:18;;;;;;;5.10;3.30;;;9.20;99.90;;;;;;4998662;28;20808;-35
2023/12/22 06:18:44;;;;;;;6.20;3.00;;;9.20;99.90;;;;;;4997814;28;20424;-34
2023/12/22 06:21:13;;;;;;;4.50;2.67;;;9.20;99.90;;;;;;4992964;28;20486;-38
2023/12/22 06:23:42;;;;;;;5.13;2.47;;;9.20;99.90;;;;;;5010444;28;20507;-36
2023/12/22 06:26:10;;;;;;;6.20;3.13;;;9.20;99.90;;;;;;4992476;28;20537;-33
2023/12/22 06:28:37;;;;;;;4.93;2.83;;;9.20;99.90;;;;;;5018133;28;20431;-33
2023/12/22 06:31:04;;;;;;;4.30;2.70;;;9.20;99.90;;;;;;4992836;28;20439;-35
2023/12/22 06:33:30;;;;;;;7.60;3.00;;;9.20;99.90;;;;;;5017152;28;20462;-33
2023/12/22 06:35:56;;;;;;;6.03;2.60;;;9.20;99.90;;;;;;4986892;28;20873;-32
2023/12/22 06:38:22;;;;;;;8.00;3.10;;;9.20;99.90;;;;;;5015379;28;20424;-35
2023/12/22 06:40:53;;;;;;;4.73;2.60;;;9.20;99.90;;;;;;5017587;28;20456;-33
2023/12/22 06:43:19;;;;;;;7.47;2.90;;;9.20;99.90;;;;;;4997762;28;20514;-30
2023/12/22 06:45:47;;;;;;;5.17;3.43;;;9.20;99.90;;;;;;5007108;28;20450;-37
2023/12/22 06:48:16;;;;;;;5.97;3.00;;;9.20;99.90;;;;;;4979059;28;20948;-35
2023/12/22 06:50:44;;;;;;;8.90;2.70;;;9.20;99.90;;;;;;4979179;28;21186;-33
2023/12/22 06:53:10;;;;;;;8.23;3.00;;;9.20;99.90;;;;;;4994885;28;20432;-36
2023/12/22 06:55:36;;;;;;;7.73;2.93;;;9.20;99.90;;;;;;5001951;28;20459;-33
2023/12/22 06:58:04;;;;;;;8.70;3.50;;;9.20;99.90;;;;;;4994686;28;21102;-33
2023/12/22 07:00:30;;;;;;;7.47;2.73;;;9.20;99.90;;;;;;4995996;28;20471;-34
2023/12/22 07:02:56;;;;;;;7.20;2.90;;;9.20;99.90;;;;;;5017029;28;20583;-35
2023/12/22 07:05:22;;;;;;;5.73;2.77;;;9.20;99.90;;;;;;4996992;28;21048;-34
2023/12/22 07:07:48;;;;;;;4.67;2.47;;;9.20;99.90;;;;;;5009596;28;20435;-32
2023/12/22 07:10:14;;;;;;;4.53;2.30;;;9.20;99.90;;;;;;4997824;28;20311;-36
2023/12/22 07:12:42;;;;;;;6.23;2.37;;;9.20;99.90;;;;;;5021132;28;20420;-38
2023/12/22 07:15:08;;;;;;;5.77;2.60;;;9.20;99.90;;;;;;5014668;28;20420;-36
2023/12/22 07:17:37;;;;;;;7.47;2.60;;;9.20;99.90;;;;;;4998017;28;20451;-32
2023/12/22 07:20:05;;;;;;;9.83;3.33;;;9.10;99.90;;;;;;5013234;28;20966;-34
2023/12/22 07:22:31;;;;;;;4.30;2.27;;;9.10;99.90;;;;;;5019265;28;20514;-33
2023/12/22 07:24:57;;;;;;;8.53;2.80;;;9.20;99.90;;;;;;4992018;28;20512;-34
2023/12/22 07:27:26;;;;;;;6.17;2.33;;;9.10;99.90;;;;;;5012116;28;20813;-31
2023/12/22 07:29:52;;;;;;;8.20;3.03;;;9.10;99.90;;;;;;4980107;28;20437;-34
2023/12/22 07:32:20;;;;;;;12.33;2.83;;;9.10;99.90;;;;;;5009293;28;20471;-35
2023/12/22 07:34:46;;;;;;;4.33;3.20;;;9.10;99.90;;;;;;5020520;28;20485;-36
2023/12/22 07:37:17;;;;;;;11.60;3.00;;;9.10;99.90;;;;;;4994716;28;20440;-35
2023/12/22 07:39:46;;;;;;;8.23;3.23;;;9.10;99.90;;;;;;4998332;28;20455;-36
2023/12/22 07:42:13;;;;;;;7.37;2.90;;;9.10;99.90;;;;;;5006861;28;20442;-34
2023/12/22 07:44:41;;;;;;;6.03;2.40;;;9.10;99.90;;;;;;4996533;28;20470;-36
2023/12/22 07:47:09;;;;;;;7.30;2.90;;;9.10;99.90;;;;;;5000105;28;20447;-33
2023/12/22 07:49:37;;;;;;;6.40;2.90;;;9.10;99.90;;;;;;5011022;28;20459;-29
2023/12/22 07:52:03;;;;;;;4.03;2.60;;;9.10;99.90;;;;;;5008477;28;20429;-32
2023/12/22 07:54:32;;;;;;;10.63;3.10;;;9.10;99.90;;;;;;4998979;28;20467;-36
2023/12/22 07:56:58;;;;;;;9.70;3.20;;;9.10;99.90;;;;;;4997299;28;20486;-32
2023/12/22 07:59:30;;;;;;;6.73;2.67;;;9.10;99.90;;;;;;5014994;28;20435;-36
2023/12/22 08:01:56;;;;;;;9.73;3.20;;;9.10;99.90;;;;;;4994346;28;20452;-37
2023/12/22 08:04:22;;;;;;;6.83;3.77;;;9.10;99.90;;;;;;5017697;28;20467;-35
2023/12/22 08:06:49;;;;;;;14.00;3.20;;;9.10;99.90;;;;;;5015984;28;20817;-39
2023/12/22 08:09:15;;;;;;;8.80;3.67;;;9.10;99.90;;;;;;4995759;28;20554;-37
2023/12/22 08:11:46;;;;;;;7.97;2.90;;;9.10;99.90;;;;;;4976803;28;20444;-35
2023/12/22 08:14:14;;;;;;;8.47;3.10;;;9.20;99.90;;;;;;5009562;28;20440;-33
2023/12/22 08:16:45;;;;;;;9.93;3.53;;;9.20;99.90;;;;;;5018231;28;20476;-33
2023/12/22 08:19:11;;;;;;;10.73;3.70;;;9.20;99.90;;;;;;4987675;28;21335;-39
2023/12/22 08:21:52;;;;;;;10.90;3.67;;;9.20;99.90;;;;;;4961449;28;20481;-41
2023/12/22 08:24:18;;;;;;;12.70;3.30;;;9.20;99.90;;;;;;4979022;28;20472;-38
2023/12/22 08:26:44;;;;;;;14.43;3.70;;;9.20;99.90;;;;;;5005709;28;20442;-34
2023/12/22 08:29:11;;;;;;;14.87;4.13;;;9.20;99.90;;;;;;5015174;28;20440;-35
2023/12/22 08:31:39;;;;;;;13.87;4.60;;;9.10;99.90;;;;;;5014271;28;20500;-36
2023/12/22 08:34:06;;;;;;;13.10;5.00;;;9.20;99.90;;;;;;4994332;28;20455;-36
2023/12/22 08:36:34;;;;;;;10.33;4.00;;;9.20;99.90;;;;;;5000573;28;20961;-35
2023/12/22 08:39:00;;;;;;;17.77;6.23;;;9.20;99.90;;;;;;5002316;28;20519;-36
2023/12/22 08:41:27;;;;;;;16.37;4.80;;;9.20;99.90;;;;;;4995386;28;20531;-36
2023/12/22 08:43:56;;;;;;;16.70;4.80;;;9.20;99.90;;;;;;4996796;28;20475;-31
2023/12/22 08:46:24;;;;;;;18.17;4.83;;;9.20;99.90;;;;;;4983503;28;20456;-36
2023/12/22 08:48:51;;;;;;;17.93;4.40;;;9.20;99.90;;;;;;4987488;28;20424;-35
2023/12/22 08:51:17;;;;;;;8.90;4.10;;;9.20;99.90;;;;;;4978346;28;20475;-35
2023/12/22 08:53:43;;;;;;;20.70;4.70;;;9.20;99.90;;;;;;5010425;28;20436;-31
2023/12/22 08:56:09;;;;;;;14.87;4.47;;;9.20;99.90;;;;;;5018060;28;20439;-36
2023/12/22 08:58:35;;;;;;;12.60;4.93;;;9.20;99.90;;;;;;4999158;28;20907;-37
2023/12/22 09:01:04;;;;;;;10.57;5.30;;;9.20;99.90;;;;;;5010916;28;20431;-35
2023/12/22 09:03:33;;;;;;;24.47;5.43;;;9.20;99.90;;;;;;5014127;28;20486;-38
2023/12/22 09:06:00;;;;;;;19.27;5.27;;;9.20;99.90;;;;;;4988933;28;20445;-33
2023/12/22 09:08:26;;;;;;;10.57;4.03;;;9.20;99.90;;;;;;5012054;28;20518;-35
2023/12/22 09:10:55;;;;;;;14.53;4.40;;;9.20;99.90;;;;;;4964978;28;20453;-38
2023/12/22 09:13:24;;;;;;;16.53;3.70;;;9.20;99.90;;;;;;4962885;28;20991;-34
2023/12/22 09:15:50;;;;;;;15.80;4.50;;;9.20;99.90;;;;;;4991495;28;20505;-38
2023/12/22 09:18:20;;;;;;;13.80;5.07;;;9.20;99.90;;;;;;5015859;28;20523;-35
2023/12/22 09:20:46;;;;;;;18.93;5.43;;;9.20;99.90;;;;;;4986148;28;20455;-40
2023/12/22 09:23:12;;;;;;;11.03;3.97;;;9.20;99.90;;;;;;5000699;28;20538;-38
2023/12/22 09:25:38;;;;;;;11.60;4.53;;;9.20;99.90;;;;;;4999766;28;21058;-41
2023/12/22 09:28:05;;;;;;;14.50;3.87;;;9.20;99.90;;;;;;5004389;28;20444;-37
2023/12/22 09:30:34;;;;;;;20.17;4.40;;;9.20;99.90;;;;;;5010578;28;20463;-39
2023/12/22 09:33:04;;;;;;;11.07;4.23;;;9.20;99.90;;;;;;4963635;23;20596;-35
2023/12/22 09:35:32;;;;;;;15.90;4.50;;;9.30;99.90;;;;;;4943022;28;20464;-37
2023/12/22 09:37:58;;;;;;;14.93;4.80;;;9.30;99.90;;;;;;4960768;28;20410;-34
2023/12/22 09:40:24;;;;;;;11.83;4.83;;;9.20;99.90;;;;;;4997481;28;21316;-36
2023/12/22 09:42:55;;;;;;;10.93;4.40;;;9.30;99.90;;;;;;4997156;28;20432;-35
2023/12/22 09:45:21;;;;;;;9.53;3.50;;;9.30;99.90;;;;;;5003505;28;20433;-37
2023/12/22 09:47:50;;;;;;;11.13;4.10;;;9.30;99.90;;;;;;4980974;28;20504;-34
2023/12/22 09:50:16;;;;;;;16.73;4.30;;;9.30;99.90;;;;;;4997238;28;20461;-34
2023/12/22 09:52:46;;;;;;;17.33;4.70;;;9.30;99.90;;;;;;4996141;28;20567;-37
2023/12/22 09:55:17;;;;;;;11.70;3.80;;;9.30;99.90;;;;;;4997366;28;21054;-39
2023/12/22 09:57:44;;;;;;;12.37;4.10;;;9.30;99.90;;;;;;4980855;28;20452;-36
2023/12/22 10:00:12;;;;;;;8.97;4.07;;;9.30;99.90;;;;;;4978815;28;21197;-34
2023/12/22 10:02:39;;;;;;;17.50;5.10;;;9.30;99.90;;;;;;4964699;28;20458;-35
2023/12/22 10:05:06;;;;;;;14.20;4.17;;;9.30;99.90;;;;;;4999929;28;20496;-35
2023/12/22 10:07:38;;;;;;;10.90;4.20;;;9.30;99.90;;;;;;5001043;28;21258;-34
2023/12/22 10:10:06;;;;;;;10.10;4.80;;;9.30;99.90;;;;;;4983778;28;20424;-37
2023/12/22 10:12:35;;;;;;;9.53;3.50;;;9.30;99.90;;;;;;5001500;28;20440;-38
2023/12/22 10:15:05;;;;;;;10.30;4.03;;;9.30;99.90;;;;;;4997598;28;20436;-39
2023/12/22 10:17:37;;;;;;;16.13;4.10;;;9.30;99.90;;;;;;4998628;28;20485;-37
2023/12/22 10:20:03;;;;;;;12.43;4.23;;;9.30;99.90;;;;;;4999560;28;20783;-39
2023/12/22 10:22:32;;;;;;;6.00;3.07;;;9.30;99.90;;;;;;5000865;28;20512;-38
2023/12/22 10:25:00;;;;;;;10.20;4.03;;;9.40;99.90;;;;;;4982174;28;20473;-39
2023/12/22 10:27:31;;;;;;;11.73;3.30;;;9.40;99.90;;;;;;4949666;28;21097;-38
2023/12/22 10:30:02;;;;;;;10.53;3.87;;;9.40;99.90;;;;;;4999156;28;20456;-38
2023/12/22 10:32:29;;;;;;;10.90;3.70;;;9.30;99.90;;;;;;4998966;28;21210;-36
2023/12/22 10:34:59;;;;;;;7.23;3.30;;;9.30;99.90;;;;;;5000892;28;20432;-37
2023/12/22 10:37:30;;;;;;;8.10;3.07;;;9.40;99.90;;;;;;5000679;28;20450;-37
2023/12/22 10:39:56;;;;;;;9.83;3.47;;;9.40;99.90;;;;;;4998007;28;20516;-39
2023/12/22 10:42:22;;;;;;;7.30;3.60;;;9.40;99.90;;;;;;4986968;28;20519;-35
2023/12/22 10:44:49;;;;;;;5.60;2.87;;;9.40;99.90;;;;;;4997825;28;20570;-34
2023/12/22 10:47:16;;;;;;;8.47;2.73;;;9.40;99.90;;;;;;4989220;28;20527;-30
2023/12/22 10:49:45;;;;;;;7.30;2.90;;;9.40;99.90;;;;;;4986555;28;20531;-30
2023/12/22 10:52:18;;;;;;;6.00;2.60;;;9.40;99.90;;;;;;4996020;28;20456;-37
2023/12/22 10:54:49;;;;;;;7.77;2.70;;;9.40;99.90;;;;;;4987250;28;20427;-33
2023/12/22 10:57:19;;;;;;;4.30;2.40;;;9.50;99.90;;;;;;4992108;28;20455;-37
2023/12/22 10:59:48;;;;;;;5.67;2.90;;;9.50;99.90;;;;;;4992588;28;20437;-32
2023/12/22 11:02:22;;;;;;;6.97;2.80;;;9.50;99.90;;;;;;4996893;28;20413;-35
2023/12/22 11:05:08;;;;;;;7.73;2.87;;;9.50;99.90;;;;;;4995792;28;21069;-36
2023/12/22 11:07:35;;;;;;;5.07;2.73;;;9.50;99.90;;;;;;4993671;28;20463;-34
2023/12/22 11:10:06;;;;;;;7.90;2.73;;;9.50;99.90;;;;;;4994139;28;20452;-36
2023/12/22 11:12:37;;;;;;;4.47;2.43;;;9.50;99.90;;;;;;4963258;28;20443;-33
2023/12/22 11:15:06;;;;;;;7.00;2.77;;;9.50;99.90;;;;;;4999218;28;20506;-34
2023/12/22 11:17:40;;;;;;;3.47;2.40;;;9.50;99.90;;;;;;4995356;28;20461;-37
2023/12/22 11:20:15;;;;;;;3.07;2.37;;;9.50;99.90;;;;;;4998526;28;21221;-37
2023/12/22 11:22:45;;;;;;;4.53;2.03;;;9.50;99.90;;;;;;5001011;28;20428;-32
2023/12/22 11:25:15;;;;;;;2.60;2.40;;;9.50;99.90;;;;;;5000064;28;20433;-36
2023/12/22 11:27:44;;;;;;;4.10;2.50;;;9.50;99.90;;;;;;4973313;28;20555;-35
2023/12/22 11:30:12;;;;;;;5.07;2.10;;;9.50;99.90;;;;;;4998969;28;20443;-34
2023/12/22 11:32:44;;;;;;;5.23;2.40;;;9.50;99.90;;;;;;4999846;28;20491;-37
2023/12/22 11:35:11;;;;;;;3.77;2.40;;;9.50;99.90;;;;;;4995252;28;20661;-33
2023/12/22 11:37:39;;;;;;;5.30;2.77;;;9.50;99.90;;;;;;4997725;28;20459;-32
2023/12/22 11:40:07;;;;;;;3.20;2.50;;;9.50;99.90;;;;;;4997475;28;20444;-38
2023/12/22 11:42:42;;;;;;;3.63;2.50;;;9.50;99.90;;;;;;4997824;28;21069;-37
2023/12/22 11:45:16;;;;;;;6.03;2.20;;;9.50;99.90;;;;;;4968506;28;20425;-35
2023/12/22 11:47:45;;;;;;;12.57;2.83;;;9.60;99.90;;;;;;4998172;28;20494;-35
2023/12/22 11:50:11;;;;;;;5.43;2.50;;;9.60;99.90;;;;;;4985386;28;20441;-32
2023/12/22 11:52:39;;;;;;;5.30;2.10;;;9.60;99.90;;;;;;4998488;28;20429;-34
2023/12/22 11:55:07;;;;;;;3.90;2.20;;;9.60;99.90;;;;;;4998525;28;20421;-35
2023/12/22 11:57:40;;;;;;;5.03;2.40;;;9.60;99.90;;;;;;4997368;28;20449;-29
2023/12/22 12:00:31;;;;;;;3.47;2.17;;;9.60;99.90;;;;;;4990478;28;20433;-32
2023/12/22 12:03:06;;;;;;;2.57;1.90;;;9.60;99.90;;;;;;4979838;28;20476;-38
2023/12/22 12:05:37;;;;;;;6.40;2.83;;;9.60;99.90;;;;;;4988336;28;20967;-37
2023/12/22 12:08:11;;;;;;;8.20;2.03;;;9.60;99.90;;;;;;5001017;28;20424;-35
2023/12/22 12:10:53;;;;;;;4.80;2.03;;;9.60;99.90;;;;;;5003717;28;20495;-35
2023/12/22 12:13:25;;;;;;;2.80;1.90;;;9.60;99.90;;;;;;5000564;28;20428;-36
2023/12/22 12:15:55;;;;;;;3.10;2.13;;;9.60;99.90;;;;;;5000055;28;21185;-32
2023/12/22 12:18:30;;;;;;;4.03;2.73;;;9.60;99.90;;;;;;4997463;28;20869;-37
2023/12/22 12:20:56;;;;;;;5.23;2.10;;;9.60;99.90;;;;;;4997798;28;21167;-33
2023/12/22 12:23:28;;;;;;;2.63;2.43;;;9.60;99.90;;;;;;4995313;28;20471;-36
2023/12/22 12:25:55;;;;;;;3.73;2.40;;;9.60;99.90;;;;;;4996831;28;20437;-33
2023/12/22 12:28:31;;;;;;;2.27;1.87;;;9.70;99.90;;;;;;4988990;28;20439;-33
2023/12/22 12:31:06;;;;;;;3.67;2.57;;;9.70;99.90;;;;;;4995984;28;20436;-34
2023/12/22 12:33:34;;;;;;;9.43;2.57;;;9.70;99.90;;;;;;4999766;28;20439;-37
2023/12/22 12:36:04;;;;;;;3.03;2.30;;;9.70;99.90;;;;;;4990029;28;20971;-36
2023/12/22 12:39:17;;;;;;;8.43;2.40;;;9.70;99.90;;;;;;4998773;28;20429;-36
2023/12/22 12:41:46;;;;;;;4.93;2.10;;;9.70;99.90;;;;;;4991380;28;20932;-38
2023/12/22 12:44:14;;;;;;;3.63;2.20;;;9.70;99.90;;;;;;4998298;28;20847;-35
2023/12/22 12:46:45;;;;;;;6.13;2.83;;;9.70;99.90;;;;;;4965225;28;20579;-30
2023/12/22 12:49:12;;;;;;;5.37;2.17;;;9.70;99.90;;;;;;4995845;28;21559;-36
2023/12/22 12:51:43;;;;;;;2.57;2.37;;;9.70;99.90;;;;;;5000726;28;20424;-32
2023/12/22 12:54:13;;;;;;;3.70;2.40;;;9.70;99.90;;;;;;4978391;28;20465;-28
2023/12/22 12:56:44;;;;;;;4.30;2.17;;;9.70;99.90;;;;;;4993776;28;20564;-34
2023/12/22 12:59:12;;;;;;;3.50;2.40;;;9.70;99.90;;;;;;4981304;28;20904;-29
2023/12/22 13:01:45;;;;;;;2.70;2.00;;;9.80;99.90;;;;;;4999910;28;20452;-30